Time,TemperatureF,DewpointF,PressureIn,WindDirection,WindDirectionDegrees,WindSpeedMPH,WindSpeedGustMPH,Humidity,HourlyPrecipIn,Conditions,Clouds,dailyrainin,SoftwareType,DateUTC
2013-07-05 00:33:00,67.0,67.0,30.27,East,80,0.0,0.0,100,0.00,,,0.06,,2013-07-05 04:33:00,
2013-07-05 00:43:00,67.0,67.0,30.27,East,80,0.0,0.0,100,0.00,,,0.06,,2013-07-05 04:43:00,
2013-07-05 00:53:00,67.0,67.0,30.27,East,80,0.0,0.0,100,0.00,,,0.06,,2013-07-05 04:53:00,
2013-07-05 01:01:00,67.0,67.0,30.27,East,80,0.0,0.0,100,0.00,,,0.06,,2013-07-05 05:01:00,
2013-07-05 01:12:00,67.0,67.0,30.27,East,80,0.0,0.0,100,0.00,,,0.06,,2013-07-05 05:12:00,
2013-07-05 01:33:00,68.0,67.0,30.27,ENE,71,2.0,5.0,98,0.00,,,0.05,,2013-07-05 05:33:00,
2013-07-05 01:43:00,68.0,67.0,30.27,ENE,68,3.0,7.0,98,0.00,,,0.05,,2013-07-05 05:43:00,
2013-07-05 01:52:00,67.0,66.0,30.27,East,98,3.0,5.0,98,0.00,,,0.05,,2013-07-05 05:52:00,
2013-07-05 02:02:00,67.0,66.0,30.27,ENE,63,2.0,5.0,98,0.01,,,0.06,,2013-07-05 06:02:00,
2013-07-05 02:13:00,67.0,66.0,30.27,ENE,63,2.0,5.0,98,0.01,,,0.06,,2013-07-05 06:13:00,
2013-07-05 02:23:00,67.0,66.0,30.26,ENE,69,0.0,5.0,98,0.01,,,0.06,,2013-07-05 06:23:00,
2013-07-05 02:34:00,66.0,65.0,30.26,ENE,70,0.0,3.0,98,0.01,,,0.06,,2013-07-05 06:34:00,
2013-07-05 02:44:00,66.0,65.0,30.26,ENE,70,0.0,3.0,98,0.01,,,0.06,,2013-07-05 06:44:00,
2013-07-05 02:53:00,66.0,65.0,30.26,ENE,70,0.0,3.0,98,0.01,,,0.06,,2013-07-05 06:53:00,
2013-07-05 03:02:00,66.0,65.0,30.26,ENE,70,0.0,3.0,98,0.01,,,0.06,,2013-07-05 07:02:00,
2013-07-05 03:12:00,67.0,66.0,30.25,ESE,103,2.0,6.0,98,0.00,,,0.06,,2013-07-05 07:12:00,
2013-07-05 03:23:00,67.0,66.0,30.25,ENE,78,2.0,4.0,97,0.00,,,0.06,,2013-07-05 07:23:00,
2013-07-05 03:34:00,67.0,66.0,30.25,East,90,0.0,4.0,97,0.00,,,0.06,,2013-07-05 07:34:00,
2013-07-05 03:43:00,67.0,66.0,30.25,East,90,0.0,4.0,97,0.00,,,0.06,,2013-07-05 07:43:00,
2013-07-05 03:53:00,67.0,66.0,30.25,East,90,0.0,4.0,97,0.00,,,0.06,,2013-07-05 07:53:00,
2013-07-05 04:03:00,67.0,66.0,30.25,East,101,0.0,4.0,95,0.00,,,0.06,,2013-07-05 08:03:00,
2013-07-05 04:12:00,67.0,66.0,30.25,East,101,0.0,4.0,95,0.00,,,0.06,,2013-07-05 08:12:00,
2013-07-05 04:23:00,66.0,65.0,30.25,ESE,121,0.0,1.0,96,0.00,,,0.06,,2013-07-05 08:23:00,
2013-07-05 04:33:00,66.0,65.0,30.24,East,100,3.0,4.0,97,0.00,,,0.06,,2013-07-05 08:33:00,
2013-07-05 04:44:00,66.0,65.0,30.24,East,100,0.0,3.0,97,0.00,,,0.06,,2013-07-05 08:44:00,
2013-07-05 04:57:00,66.0,65.0,30.24,East,100,0.0,3.0,97,0.00,,,0.06,,2013-07-05 08:57:00,
2013-07-05 05:08:00,66.0,65.0,30.24,East,100,0.0,3.0,97,0.00,,,0.06,,2013-07-05 09:08:00,
2013-07-05 05:37:00,66.0,65.0,30.24,ENE,74,2.0,4.0,97,0.00,,,0.06,,2013-07-05 09:37:00,
2013-07-05 05:48:00,66.0,65.0,30.24,ESE,116,1.0,3.0,97,0.00,,,0.06,,2013-07-05 09:48:00,
2013-07-05 05:55:00,66.0,65.0,30.24,ESE,116,0.0,3.0,97,0.00,,,0.06,,2013-07-05 09:55:00,
2013-07-05 06:08:00,66.0,65.0,30.24,ENE,78,1.0,4.0,97,0.00,,,0.06,,2013-07-05 10:08:00,
2013-07-05 06:20:00,66.0,65.0,30.24,ENE,78,2.0,4.0,97,0.00,,,0.06,,2013-07-05 10:20:00,
2013-07-05 06:27:00,66.0,65.0,30.24,ENE,78,2.0,4.0,97,0.00,,,0.06,,2013-07-05 10:27:00,
2013-07-05 06:47:00,66.0,65.0,30.24,ENE,78,2.0,4.0,97,0.00,,,0.06,,2013-07-05 10:47:00,
2013-07-05 06:56:00,66.0,65.0,30.24,ENE,78,3.0,3.0,98,0.00,,,0.06,,2013-07-05 10:56:00,
2013-07-05 07:11:00,66.0,65.0,30.24,ENE,78,1.0,4.0,97,0.00,,,0.06,,2013-07-05 11:11:00,
2013-07-05 07:18:00,66.0,65.0,30.24,ENE,78,1.0,4.0,97,0.00,,,0.06,,2013-07-05 11:18:00,
2013-07-05 07:25:00,66.0,65.0,30.25,ENE,78,0.0,3.0,98,0.00,,,0.06,,2013-07-05 11:25:00,
2013-07-05 07:37:00,66.0,65.0,30.25,ENE,78,0.0,3.0,98,0.00,,,0.06,,2013-07-05 11:37:00,
2013-07-05 07:48:00,66.0,65.0,30.25,ENE,78,0.0,3.0,98,0.00,,,0.06,,2013-07-05 11:48:00,
2013-07-05 08:00:00,67.0,66.0,30.25,ENE,78,0.0,4.0,97,0.00,,,0.06,,2013-07-05 12:00:00,
2013-07-05 08:26:00,68.0,67.0,30.25,ESE,105,1.0,5.0,95,0.00,,,0.06,,2013-07-05 12:26:00,
2013-07-05 08:37:00,70.0,68.0,30.26,ENE,74,3.0,4.0,93,0.00,,,0.06,,2013-07-05 12:37:00,
2013-07-05 08:49:00,70.0,68.0,30.26,ENE,74,3.0,4.0,93,0.00,,,0.06,,2013-07-05 12:49:00,
2013-07-05 08:57:00,70.0,68.0,30.27,ENE,74,2.0,6.0,93,0.00,,,0.06,,2013-07-05 12:57:00,
2013-07-05 09:07:00,71.0,68.0,30.26,ENE,71,5.0,6.0,91,0.00,,,0.06,,2013-07-05 13:07:00,
2013-07-05 09:14:00,72.0,69.0,30.26,SE,142,0.0,6.0,90,0.00,,,0.06,,2013-07-05 13:14:00,
2013-07-05 09:26:00,72.0,69.0,30.26,SE,142,0.0,6.0,90,0.00,,,0.06,,2013-07-05 13:26:00,
2013-07-05 09:49:00,74.0,70.0,30.26,East,80,3.0,4.0,87,0.00,,,0.06,,2013-07-05 13:49:00,
2013-07-05 10:16:00,75.0,71.0,30.26,ENE,78,0.0,7.0,86,0.00,,,0.06,,2013-07-05 14:16:00,
2013-07-05 10:38:00,75.0,70.0,30.26,SE,146,7.0,11.0,84,0.00,,,0.06,,2013-07-05 14:38:00,
2013-07-05 10:46:00,75.0,68.0,30.27,East,87,0.0,9.0,80,0.00,,,0.06,,2013-07-05 14:46:00,
2013-07-05 10:58:00,75.0,68.0,30.27,East,87,0.0,9.0,80,0.00,,,0.06,,2013-07-05 14:58:00,
2013-07-05 11:07:00,75.0,68.0,30.27,East,87,0.0,9.0,80,0.00,,,0.06,,2013-07-05 15:07:00,
2013-07-05 11:18:00,75.0,68.0,30.27,East,87,0.0,9.0,80,0.00,,,0.06,,2013-07-05 15:18:00,
2013-07-05 11:25:00,75.0,68.0,30.27,East,87,0.0,9.0,80,0.00,,,0.06,,2013-07-05 15:25:00,
2013-07-05 11:34:00,76.0,69.0,30.27,SW,223,4.0,13.0,78,0.00,,,0.06,,2013-07-05 15:34:00,
2013-07-05 11:43:00,78.0,70.0,30.27,SSW,211,6.0,10.0,76,0.00,,,0.06,,2013-07-05 15:43:00,
2013-07-05 11:53:00,78.0,70.0,30.27,SSW,211,6.0,10.0,76,0.00,,,0.06,,2013-07-05 15:53:00,
2013-07-05 12:02:00,77.0,68.0,30.27,SSW,198,13.0,17.0,75,0.00,,,0.06,,2013-07-05 16:02:00,
2013-07-05 12:33:00,79.0,70.0,30.27,WNW,284,3.0,10.0,75,0.00,,,0.06,,2013-07-05 16:33:00,
2013-07-05 12:44:00,79.0,70.0,30.27,SW,215,8.0,19.0,74,0.00,,,0.06,,2013-07-05 16:44:00,
2013-07-05 12:53:00,79.0,70.0,30.27,SW,215,8.0,19.0,74,0.00,,,0.06,,2013-07-05 16:53:00,
2013-07-05 13:12:00,79.0,70.0,30.27,SW,215,0.0,10.0,75,0.00,,,0.06,,2013-07-05 17:12:00,
2013-07-05 13:22:00,80.0,71.0,30.27,West,263,4.0,17.0,74,0.00,,,0.06,,2013-07-05 17:22:00,
2013-07-05 13:33:00,79.0,70.0,30.27,SW,217,0.0,10.0,75,0.00,,,0.06,,2013-07-05 17:33:00,
2013-07-05 13:43:00,80.0,71.0,30.26,WSW,250,4.0,14.0,73,0.00,,,0.06,,2013-07-05 17:43:00,
2013-07-05 13:53:00,80.0,71.0,30.26,WSW,250,4.0,14.0,73,0.00,,,0.06,,2013-07-05 17:53:00,
2013-07-05 14:02:00,80.0,71.0,30.26,WSW,250,4.0,14.0,73,0.00,,,0.06,,2013-07-05 18:02:00,
2013-07-05 14:11:00,80.0,71.0,30.26,WSW,250,4.0,14.0,73,0.00,,,0.06,,2013-07-05 18:11:00,
2013-07-05 14:22:00,80.0,71.0,30.26,WSW,250,4.0,14.0,73,0.00,,,0.06,,2013-07-05 18:22:00,
2013-07-05 15:22:00,80.0,70.0,30.24,NW,312,5.0,8.0,72,0.00,,,0.06,,2013-07-05 19:22:00,
2013-07-05 15:34:00,80.0,70.0,30.24,NW,312,5.0,8.0,72,0.00,,,0.06,,2013-07-05 19:34:00,
2013-07-05 15:43:00,80.0,71.0,30.24,WSW,243,0.0,10.0,73,0.00,,,0.06,,2013-07-05 19:43:00,
2013-07-05 15:53:00,80.0,71.0,30.24,WSW,243,0.0,10.0,73,0.00,,,0.06,,2013-07-05 19:53:00,
2013-07-05 16:02:00,79.0,70.0,30.22,NW,304,4.0,6.0,75,0.00,,,0.06,,2013-07-05 20:02:00,
2013-07-05 16:11:00,79.0,70.0,30.22,NW,304,4.0,6.0,75,0.00,,,0.06,,2013-07-05 20:11:00,
2013-07-05 16:22:00,79.0,70.0,30.22,NW,304,4.0,6.0,75,0.00,,,0.06,,2013-07-05 20:22:00,
2013-07-05 16:33:00,80.0,70.0,30.22,SSW,212,4.0,11.0,72,0.00,,,0.06,,2013-07-05 20:33:00,
2013-07-05 16:43:00,80.0,70.0,30.22,SSW,212,4.0,11.0,72,0.00,,,0.06,,2013-07-05 20:43:00,
2013-07-05 16:53:00,81.0,71.0,30.22,West,271,6.0,10.0,72,0.00,,,0.05,,2013-07-05 20:53:00,
2013-07-05 17:02:00,81.0,71.0,30.22,West,271,6.0,10.0,72,0.00,,,0.05,,2013-07-05 21:02:00,
2013-07-05 17:12:00,81.0,71.0,30.22,West,271,6.0,10.0,72,0.00,,,0.05,,2013-07-05 21:12:00,
2013-07-05 17:34:00,81.0,72.0,30.21,NW,306,6.0,9.0,73,0.00,,,0.02,,2013-07-05 21:34:00,
2013-07-05 17:53:00,79.0,71.0,30.21,NW,306,1.0,9.0,77,0.00,,,0.02,,2013-07-05 21:53:00,
2013-07-05 18:02:00,79.0,71.0,30.21,NW,306,1.0,9.0,77,0.00,,,0.02,,2013-07-05 22:02:00,
2013-07-05 18:12:00,80.0,72.0,30.21,North,5,4.0,12.0,76,0.00,,,0.02,,2013-07-05 22:12:00,
2013-07-05 18:22:00,80.0,72.0,30.21,WNW,294,0.0,10.0,76,0.00,,,0.02,,2013-07-05 22:22:00,
2013-07-05 18:34:00,80.0,72.0,30.21,WNW,294,0.0,10.0,76,0.00,,,0.02,,2013-07-05 22:34:00,
2013-07-05 18:43:00,80.0,72.0,30.21,WSW,243,4.0,12.0,77,0.00,,,0.01,,2013-07-05 22:43:00,
2013-07-05 18:53:00,79.0,71.0,30.21,West,278,0.0,6.0,77,0.00,,,0.01,,2013-07-05 22:53:00,
2013-07-05 19:02:00,79.0,71.0,30.21,SW,224,4.0,10.0,76,0.00,,,0.01,,2013-07-05 23:02:00,
2013-07-05 19:11:00,79.0,72.0,30.21,South,173,0.0,9.0,80,0.00,,,0.01,,2013-07-05 23:11:00,
2013-07-05 19:23:00,79.0,72.0,30.21,South,173,0.0,9.0,80,0.00,,,0.01,,2013-07-05 23:23:00,
2013-07-05 19:43:00,74.0,70.0,30.22,ESE,118,0.0,6.0,87,0.00,,,0.01,,2013-07-05 23:43:00,
2013-07-05 19:53:00,75.0,71.0,30.22,ESE,121,0.0,0.0,87,0.00,,,0.01,,2013-07-05 23:53:00,
2013-07-05 20:02:00,75.0,71.0,30.22,ESE,121,0.0,0.0,87,0.00,,,0.01,,2013-07-06 00:02:00,
2013-07-05 20:12:00,75.0,71.0,30.22,ESE,121,0.0,0.0,87,0.00,,,0.01,,2013-07-06 00:12:00,
2013-07-05 20:22:00,73.0,70.0,30.23,ESE,123,0.0,1.0,90,0.00,,,0.01,,2013-07-06 00:22:00,
2013-07-05 20:33:00,72.0,69.0,30.22,SSE,167,0.0,4.0,91,0.00,,,0.01,,2013-07-06 00:33:00,
2013-07-05 20:42:00,72.0,70.0,30.22,SSE,167,0.0,2.0,92,0.00,,,0.01,,2013-07-06 00:42:00,
2013-07-05 20:53:00,72.0,70.0,30.22,SSE,167,0.0,2.0,92,0.00,,,0.01,,2013-07-06 00:53:00,
2013-07-05 21:02:00,72.0,70.0,30.22,SSE,167,0.0,2.0,92,0.00,,,0.01,,2013-07-06 01:02:00,
2013-07-05 21:12:00,72.0,70.0,30.22,SSE,167,0.0,2.0,92,0.00,,,0.01,,2013-07-06 01:12:00,
2013-07-05 21:33:00,70.0,69.0,30.23,SSW,192,0.0,2.0,96,0.00,,,0.01,,2013-07-06 01:33:00,
2013-07-05 21:43:00,69.0,68.0,30.22,SSW,192,0.0,0.0,97,0.00,,,0.01,,2013-07-06 01:43:00,
2013-07-05 21:53:00,69.0,68.0,30.22,SSW,192,0.0,0.0,97,0.00,,,0.01,,2013-07-06 01:53:00,
2013-07-05 22:02:00,69.0,68.0,30.23,South,191,0.0,1.0,98,0.00,,,0.01,,2013-07-06 02:02:00,
2013-07-05 22:22:00,69.0,68.0,30.24,South,191,0.0,0.0,97,0.00,,,0.01,,2013-07-06 02:22:00,
2013-07-05 22:34:00,69.0,68.0,30.24,South,191,0.0,0.0,97,0.00,,,0.01,,2013-07-06 02:34:00,
2013-07-05 22:43:00,69.0,68.0,30.25,South,191,0.0,0.0,97,0.00,,,0.01,,2013-07-06 02:43:00,
2013-07-05 22:53:00,69.0,68.0,30.25,South,191,0.0,0.0,97,0.00,,,0.01,,2013-07-06 02:53:00,
2013-07-05 23:02:00,69.0,68.0,30.25,South,191,0.0,0.0,97,0.00,,,0.01,,2013-07-06 03:02:00,
2013-07-05 23:34:00,69.0,68.0,30.24,SSW,192,0.0,0.0,98,0.00,,,0.01,,2013-07-06 03:34:00,
2013-07-05 23:43:00,69.0,68.0,30.25,SSW,192,0.0,0.0,97,0.00,,,0.01,,2013-07-06 03:43:00,
2013-07-05 23:53:00,69.0,68.0,30.25,SSW,192,0.0,0.0,97,0.00,,,0.01,,2013-07-06 03:53:00,